Echo, Louisiana
Current Conditions -  °F | °C
As of 12:53 PM on Friday 28 Nov 2014 (Local Time) from KESF Reporting Station
Clear Clear  
Wind Chill: 60°   Ceiling: Unl
Heat Index: 60°   Visibility: 10mi
Dew Point: 35°   Wind: 8mph
Humidity: 39%   Direction: 190°S
Pressure: 30.3"   Gusts: NA
Location:  31.11°N, 92.24°W
Report Text: KESF 281853Z AUTO 19007KT 10SM CLR 16/02 A3030 RMK AO2 SLP260 T01560017
Loading
Personal Weather Stations






























Interactive Weather Map New forecast layout! Learn more

10-Day Weather Forecast

Advertisements
Track Severe Weather on mobile